createdAt,value
2023-05-03T00:01:31.738Z,10.30
2023-05-03T00:03:58.464Z,10.30
2023-05-03T00:06:25.715Z,8.81
2023-05-03T00:08:52.496Z,8.75
2023-05-03T00:11:19.244Z,8.54
2023-05-03T00:13:46.037Z,8.50
2023-05-03T00:16:12.990Z,8.92
2023-05-03T00:18:39.658Z,8.99
2023-05-03T00:21:06.306Z,9.01
2023-05-03T00:23:32.918Z,10.04
2023-05-03T00:25:59.621Z,7.70
2023-05-03T00:28:26.831Z,7.64
2023-05-03T00:30:53.584Z,8.23
2023-05-03T00:33:20.375Z,9.52
2023-05-03T00:35:47.046Z,8.24
2023-05-03T00:38:16.538Z,7.45
2023-05-03T00:40:43.317Z,9.02
2023-05-03T00:43:12.326Z,8.29
2023-05-03T00:45:39.022Z,8.14
2023-05-03T00:48:06.379Z,8.62
2023-05-03T00:50:33.152Z,9.94
2023-05-03T00:52:59.846Z,8.26
2023-05-03T00:55:28.143Z,9.40
2023-05-03T00:57:54.802Z,9.41
2023-05-03T01:00:22.331Z,9.07
2023-05-03T01:02:49.498Z,9.03
2023-05-03T01:05:16.624Z,7.56
2023-05-03T01:08:06.156Z,10.12
2023-05-03T01:10:45.117Z,8.81
2023-05-03T01:13:21.261Z,7.78
2023-05-03T01:16:01.548Z,8.45
2023-05-03T01:18:34.510Z,9.88
2023-05-03T01:21:01.604Z,9.30
2023-05-03T01:24:04.827Z,9.13
2023-05-03T01:26:31.523Z,9.36
2023-05-03T01:28:58.528Z,9.20
2023-05-03T01:31:33.995Z,10.03
2023-05-03T01:34:26.016Z,10.19
2023-05-03T01:36:53.582Z,9.27
2023-05-03T01:39:23.167Z,10.22
2023-05-03T01:41:50.593Z,9.60
2023-05-03T01:44:17.257Z,9.19
2023-05-03T01:46:46.974Z,9.04
2023-05-03T01:49:13.855Z,8.67
2023-05-03T01:51:40.571Z,8.59
2023-05-03T01:54:07.384Z,9.97
2023-05-03T01:56:34.730Z,10.27
2023-05-03T01:59:01.554Z,9.45
2023-05-03T02:01:28.366Z,9.16
2023-05-03T02:03:55.088Z,7.90
2023-05-03T02:06:21.842Z,7.69
2023-05-03T02:08:48.488Z,8.39
2023-05-03T02:11:15.260Z,8.29
2023-05-03T02:13:41.956Z,9.07
2023-05-03T02:16:09.663Z,9.29
2023-05-03T02:18:36.868Z,9.08
2023-05-03T02:21:04.939Z,8.62
2023-05-03T02:23:31.573Z,9.13
2023-05-03T02:25:58.218Z,9.42
2023-05-03T02:28:24.857Z,9.15
2023-05-03T02:30:51.878Z,9.18
2023-05-03T02:33:18.557Z,8.66
2023-05-03T02:35:45.202Z,9.30
2023-05-03T02:38:12.096Z,9.97
2023-05-03T02:40:38.679Z,9.31
2023-05-03T02:43:05.573Z,8.75
2023-05-03T02:45:32.227Z,7.56
2023-05-03T02:47:59.601Z,8.84
2023-05-03T02:50:26.276Z,9.44
2023-05-03T02:52:53.355Z,9.79
2023-05-03T02:55:19.998Z,10.20
2023-05-03T02:57:46.666Z,9.73
2023-05-03T03:00:15.437Z,9.98
2023-05-03T03:02:42.202Z,10.45
2023-05-03T03:05:09.459Z,9.33
2023-05-03T03:07:37.441Z,9.12
2023-05-03T03:10:04.638Z,8.77
2023-05-03T03:12:31.527Z,10.19
2023-05-03T03:14:58.165Z,8.90
2023-05-03T03:17:24.866Z,9.17
2023-05-03T03:19:51.836Z,8.76
2023-05-03T03:22:18.503Z,8.34
2023-05-03T03:24:45.827Z,9.67
2023-05-03T03:27:12.518Z,8.77
2023-05-03T03:29:39.132Z,9.86
2023-05-03T03:32:06.434Z,8.97
2023-05-03T03:34:33.368Z,7.67
2023-05-03T03:37:00.050Z,8.90
2023-05-03T03:39:26.685Z,8.92
2023-05-03T03:41:53.343Z,8.32
2023-05-03T03:44:19.990Z,8.27
2023-05-03T03:46:46.682Z,8.12
2023-05-03T03:49:13.590Z,8.11
2023-05-03T03:51:40.352Z,9.12
2023-05-03T03:54:07.010Z,7.61
2023-05-03T03:56:33.756Z,9.26
2023-05-03T03:59:00.485Z,8.82
2023-05-03T04:01:28.176Z,9.19
2023-05-03T04:03:54.928Z,9.51
2023-05-03T04:06:21.841Z,10.01
2023-05-03T04:08:48.512Z,8.75
2023-05-03T04:11:15.151Z,8.14
2023-05-03T04:13:41.764Z,8.92
2023-05-03T04:16:08.512Z,8.59
2023-05-03T04:18:35.419Z,8.90
2023-05-03T04:21:02.159Z,9.44
2023-05-03T04:23:28.916Z,8.70
2023-05-03T04:25:57.234Z,9.37
2023-05-03T04:28:25.894Z,8.75
2023-05-03T04:30:53.357Z,9.05
2023-05-03T04:33:23.234Z,10.05
2023-05-03T04:35:51.272Z,8.49
2023-05-03T04:38:18.932Z,10.30
2023-05-03T04:40:46.404Z,9.00
2023-05-03T04:43:13.101Z,9.07
2023-05-03T04:45:40.228Z,9.04
2023-05-03T04:48:07.102Z,8.01
2023-05-03T04:50:34.086Z,9.17
2023-05-03T04:53:00.758Z,9.43
2023-05-03T04:55:27.412Z,8.18
2023-05-03T04:57:55.659Z,8.78
2023-05-03T05:00:22.668Z,7.89
2023-05-03T05:02:49.425Z,8.34
2023-05-03T05:05:17.382Z,7.76
2023-05-03T05:07:44.647Z,8.92
2023-05-03T05:10:11.390Z,8.26
2023-05-03T05:12:38.068Z,7.98
2023-05-03T05:15:05.242Z,8.77
2023-05-03T05:17:31.973Z,8.78
2023-05-03T05:19:58.708Z,9.27
2023-05-03T05:22:25.415Z,7.89
2023-05-03T05:24:52.317Z,9.15
2023-05-03T05:27:19.117Z,9.27
2023-05-03T05:29:45.861Z,8.58
2023-05-03T05:32:13.055Z,8.17
2023-05-03T05:34:45.652Z,7.82
2023-05-03T05:37:12.673Z,8.58
2023-05-03T05:39:39.463Z,7.54
2023-05-03T05:42:06.211Z,8.62
2023-05-03T05:44:32.897Z,9.37
2023-05-03T05:46:59.576Z,9.11
2023-05-03T05:49:26.181Z,9.47
2023-05-03T05:51:52.750Z,9.23
2023-05-03T05:54:19.343Z,9.13
2023-05-03T05:56:45.955Z,8.82
2023-05-03T05:59:12.573Z,8.91
2023-05-03T06:01:41.877Z,8.22
2023-05-03T06:04:08.641Z,8.13
2023-05-03T06:06:35.482Z,8.17
2023-05-03T06:09:12.957Z,8.82
2023-05-03T06:11:50.269Z,8.34
2023-05-03T06:14:17.435Z,8.08
2023-05-03T06:16:44.737Z,8.63
2023-05-03T06:19:11.373Z,9.11
2023-05-03T06:21:38.172Z,8.38
2023-05-03T06:24:04.999Z,8.48
2023-05-03T06:26:31.799Z,8.16
2023-05-03T06:29:00.865Z,7.87
2023-05-03T06:31:27.755Z,7.59
2023-05-03T06:33:54.483Z,7.91
2023-05-03T06:36:21.236Z,7.85
2023-05-03T06:38:47.872Z,7.73
2023-05-03T06:41:14.529Z,8.40
2023-05-03T06:43:41.147Z,7.81
2023-05-03T06:46:07.822Z,8.26
2023-05-03T06:48:34.438Z,8.26
2023-05-03T06:51:01.010Z,7.23
2023-05-03T06:53:28.988Z,8.19
2023-05-03T06:55:56.040Z,8.70
2023-05-03T06:58:22.773Z,7.56
2023-05-03T07:00:53.278Z,7.91
2023-05-03T07:03:19.982Z,7.31
2023-05-03T07:05:47.355Z,8.46
2023-05-03T07:08:14.003Z,6.87
2023-05-03T07:10:41.945Z,8.48
2023-05-03T07:13:08.696Z,7.94
2023-05-03T07:15:35.338Z,7.22
2023-05-03T07:18:02.061Z,8.38
2023-05-03T07:20:28.930Z,7.99
2023-05-03T07:22:55.872Z,7.48
2023-05-03T07:25:22.566Z,7.81
2023-05-03T07:27:49.308Z,8.33
2023-05-03T07:30:16.096Z,7.98
2023-05-03T07:32:42.938Z,8.23
2023-05-03T07:35:09.884Z,7.18
2023-05-03T07:37:38.661Z,7.38
2023-05-03T07:40:07.093Z,6.53
2023-05-03T07:42:34.071Z,7.61
2023-05-03T07:45:01.295Z,6.78
2023-05-03T07:47:28.107Z,8.10
2023-05-03T07:49:55.010Z,7.11
2023-05-03T07:52:21.663Z,8.06
2023-05-03T07:54:48.320Z,7.83
2023-05-03T07:57:15.288Z,7.99
2023-05-03T07:59:43.542Z,6.31
2023-05-03T08:02:10.313Z,8.17
2023-05-03T08:04:37.567Z,7.95
2023-05-03T08:07:04.505Z,7.54
2023-05-03T08:09:31.226Z,6.97
2023-05-03T08:11:58.017Z,7.74
2023-05-03T08:14:24.716Z,7.18
2023-05-03T08:16:51.525Z,7.11
2023-05-03T08:19:18.284Z,7.97
2023-05-03T08:21:46.897Z,7.65
2023-05-03T08:24:16.170Z,5.71
2023-05-03T08:26:46.275Z,6.97
2023-05-03T08:29:12.911Z,8.23
2023-05-03T08:31:39.933Z,8.73
2023-05-03T08:34:08.144Z,8.17
2023-05-03T08:36:35.788Z,7.73
2023-05-03T08:39:06.519Z,8.41
2023-05-03T08:41:33.562Z,7.89
2023-05-03T08:44:00.911Z,8.55
2023-05-03T08:46:28.432Z,8.70
2023-05-03T08:48:55.574Z,7.04
2023-05-03T08:51:23.313Z,8.40
2023-05-03T08:53:50.266Z,8.68
2023-05-03T08:56:29.286Z,8.84
2023-05-03T08:58:56.487Z,7.37
2023-05-03T09:01:23.166Z,8.46
2023-05-03T09:03:51.218Z,8.58
2023-05-03T09:06:27.439Z,9.49
2023-05-03T09:08:54.535Z,9.23
2023-05-03T09:11:39.697Z,9.32
2023-05-03T09:14:09.816Z,9.59
2023-05-03T09:16:36.474Z,9.05
2023-05-03T09:19:04.738Z,9.29
2023-05-03T09:21:34.386Z,8.41
2023-05-03T09:24:01.765Z,8.98
2023-05-03T09:26:33.316Z,9.07
2023-05-03T09:29:02.707Z,8.96
2023-05-03T09:31:30.196Z,9.14
2023-05-03T09:33:58.993Z,9.27
2023-05-03T09:36:28.580Z,9.85
2023-05-03T09:38:56.067Z,9.35
2023-05-03T09:41:44.930Z,9.80
2023-05-03T09:44:12.371Z,9.50
2023-05-03T09:46:39.088Z,9.11
2023-05-03T09:49:05.809Z,9.37
2023-05-03T09:51:32.473Z,9.89
2023-05-03T09:53:59.330Z,9.66
2023-05-03T09:56:28.719Z,9.31
2023-05-03T09:58:55.384Z,9.67
2023-05-03T10:01:24.875Z,9.53
2023-05-03T10:03:53.063Z,8.15
2023-05-03T10:06:29.168Z,9.87
2023-05-03T10:09:29.895Z,9.99
2023-05-03T10:11:59.072Z,9.70
2023-05-03T10:14:25.879Z,9.05
2023-05-03T10:17:03.284Z,8.05
2023-05-03T10:19:29.846Z,10.02
2023-05-03T10:22:04.554Z,9.23
2023-05-03T10:24:31.633Z,9.59
2023-05-03T10:26:58.540Z,9.36
2023-05-03T10:29:54.435Z,10.00
2023-05-03T10:32:39.859Z,9.52
2023-05-03T10:35:12.845Z,9.73
2023-05-03T10:37:41.020Z,9.26
2023-05-03T10:40:11.796Z,9.34
2023-05-03T10:42:38.809Z,7.72
2023-05-03T10:45:08.952Z,9.91
2023-05-03T10:47:35.754Z,9.47
2023-05-03T10:50:24.863Z,9.42
2023-05-03T10:52:51.583Z,9.20
2023-05-03T10:55:20.949Z,9.58
2023-05-03T10:57:48.269Z,9.93
2023-05-03T11:00:18.332Z,9.66
2023-05-03T11:03:10.145Z,10.07
2023-05-03T11:05:37.534Z,9.00
2023-05-03T11:08:14.394Z,10.07
2023-05-03T11:10:41.807Z,10.05
2023-05-03T11:13:08.549Z,9.72
2023-05-03T11:15:35.740Z,9.26
2023-05-03T11:18:02.962Z,7.22
2023-05-03T11:20:29.780Z,10.10
2023-05-03T11:22:56.476Z,9.88
2023-05-03T11:25:23.196Z,10.13
2023-05-03T11:27:49.833Z,9.01
2023-05-03T11:30:16.536Z,9.69
2023-05-03T11:32:43.459Z,9.85
2023-05-03T11:35:10.947Z,10.28
2023-05-03T11:37:37.687Z,8.29
2023-05-03T11:40:05.154Z,9.85
2023-05-03T11:42:31.797Z,9.88
2023-05-03T11:44:58.481Z,9.35
2023-05-03T11:47:25.207Z,9.22
2023-05-03T11:49:55.504Z,9.94
2023-05-03T11:52:27.497Z,10.04
2023-05-03T11:54:54.353Z,9.77
2023-05-03T11:57:21.579Z,9.85
2023-05-03T11:59:49.825Z,10.25
2023-05-03T12:02:16.702Z,10.05
2023-05-03T12:04:45.345Z,9.91
2023-05-03T12:07:15.547Z,9.60
2023-05-03T12:09:47.876Z,10.25
2023-05-03T12:12:26.809Z,10.52
2023-05-03T12:15:03.558Z,9.75
2023-05-03T12:17:44.420Z,9.91
2023-05-03T12:22:55.990Z,10.03
2023-05-03T12:25:25.938Z,10.06
2023-05-03T12:28:12.806Z,9.93
2023-05-03T12:30:41.117Z,10.28
2023-05-03T12:33:10.115Z,9.50
2023-05-03T12:35:40.265Z,10.27
2023-05-03T12:38:09.806Z,10.23
2023-05-03T12:40:37.534Z,9.98
2023-05-03T12:43:04.821Z,10.34
2023-05-03T12:45:34.575Z,9.88
2023-05-03T12:48:01.769Z,9.60
2023-05-03T12:50:31.052Z,9.80
2023-05-03T12:53:01.888Z,9.82
2023-05-03T12:55:34.505Z,10.38
2023-05-03T13:00:36.510Z,10.45
2023-05-03T13:05:36.178Z,10.32
2023-05-03T13:08:09.200Z,9.57
2023-05-03T13:10:37.919Z,9.00
2023-05-03T13:13:04.655Z,9.88
2023-05-03T13:15:31.235Z,10.04
2023-05-03T13:18:01.650Z,9.74
2023-05-03T13:20:29.048Z,10.16
2023-05-03T13:22:55.945Z,9.54
2023-05-03T13:25:22.596Z,10.04
2023-05-03T13:27:52.350Z,9.84
2023-05-03T13:30:23.285Z,10.24
2023-05-03T13:32:51.351Z,10.43
2023-05-03T13:35:18.331Z,9.52
2023-05-03T13:37:45.101Z,10.57
2023-05-03T13:40:12.381Z,10.58
2023-05-03T13:42:39.051Z,10.18
2023-05-03T13:45:06.817Z,10.03
2023-05-03T13:47:59.576Z,10.51
2023-05-03T13:54:08.036Z,10.63
2023-05-03T13:56:35.114Z,9.88
2023-05-03T13:59:01.795Z,9.27
2023-05-03T14:01:28.713Z,10.58
2023-05-03T14:03:55.790Z,9.66
2023-05-03T14:10:03.424Z,10.26
2023-05-03T14:12:30.391Z,9.92
2023-05-03T14:14:57.164Z,10.31
2023-05-03T14:17:24.209Z,10.18
2023-05-03T14:19:51.579Z,9.46
2023-05-03T14:22:18.328Z,9.77
2023-05-03T14:24:45.714Z,10.53
2023-05-03T14:27:14.245Z,10.31
2023-05-03T14:29:41.116Z,9.12
2023-05-03T14:35:56.225Z,10.44
2023-05-03T14:38:23.501Z,10.78
2023-05-03T14:40:51.326Z,11.09
2023-05-03T14:43:20.739Z,10.10
2023-05-03T14:45:48.366Z,9.29
2023-05-03T14:48:15.503Z,10.95
2023-05-03T14:50:42.587Z,8.80
2023-05-03T14:53:09.440Z,9.51
2023-05-03T14:55:36.711Z,10.15
2023-05-03T14:58:03.440Z,10.72
2023-05-03T15:00:30.266Z,10.86
2023-05-03T15:02:57.206Z,10.38
2023-05-03T15:05:24.088Z,10.84
2023-05-03T15:07:50.860Z,10.76
2023-05-03T15:10:17.555Z,10.74
2023-05-03T15:12:44.554Z,11.22
2023-05-03T15:15:12.111Z,11.23
2023-05-03T15:17:39.163Z,10.10
2023-05-03T15:20:07.123Z,11.38
2023-05-03T15:22:36.126Z,10.72
2023-05-03T15:25:03.522Z,11.48
2023-05-03T15:27:30.900Z,11.04
2023-05-03T15:33:44.768Z,11.24
2023-05-03T15:36:12.432Z,10.00
2023-05-03T15:38:39.047Z,11.31
2023-05-03T15:41:06.658Z,10.84
2023-05-03T15:43:33.458Z,10.89
2023-05-03T15:46:01.392Z,11.01
2023-05-03T15:48:28.102Z,11.04
2023-05-03T15:50:54.811Z,10.15
2023-05-03T15:53:21.503Z,10.34
2023-05-03T15:55:48.263Z,10.77
2023-05-03T15:58:15.031Z,10.12
2023-05-03T16:00:42.275Z,10.25
2023-05-03T16:03:08.980Z,10.48
2023-05-03T16:05:36.980Z,10.75
2023-05-03T16:08:03.816Z,10.39
2023-05-03T16:10:30.726Z,11.01
2023-05-03T16:12:59.255Z,10.50
2023-05-03T16:15:26.049Z,10.51
2023-05-03T16:17:54.238Z,10.95
2023-05-03T16:20:21.212Z,10.40
2023-05-03T16:22:48.830Z,10.93
2023-05-03T16:25:16.625Z,10.03
2023-05-03T16:27:43.383Z,10.99
2023-05-03T16:30:10.547Z,10.29
2023-05-03T16:32:37.296Z,9.94
2023-05-03T16:35:04.454Z,10.33
2023-05-03T16:37:32.159Z,9.47
2023-05-03T16:39:59.862Z,10.43
2023-05-03T16:42:26.609Z,10.37
2023-05-03T16:44:53.260Z,10.19
2023-05-03T16:47:19.936Z,9.64
2023-05-03T16:49:46.591Z,9.78
2023-05-03T16:52:13.338Z,10.29
2023-05-03T16:54:40.268Z,11.00
2023-05-03T16:57:07.010Z,9.37
2023-05-03T16:59:33.651Z,9.47
2023-05-03T17:02:01.254Z,10.47
2023-05-03T17:04:28.338Z,9.59
2023-05-03T17:06:56.201Z,9.82
2023-05-03T17:09:22.912Z,10.53
2023-05-03T17:11:49.632Z,9.72
2023-05-03T17:14:16.330Z,9.86
2023-05-03T17:16:44.450Z,9.54
2023-05-03T17:19:11.249Z,9.92
2023-05-03T17:21:37.859Z,10.06
2023-05-03T17:24:04.701Z,9.59
2023-05-03T17:26:31.802Z,10.53
2023-05-03T17:28:58.441Z,10.70
2023-05-03T17:31:25.098Z,10.23
2023-05-03T17:33:51.767Z,10.34
2023-05-03T17:36:23.661Z,10.67
2023-05-03T17:38:50.392Z,9.32
2023-05-03T17:41:17.086Z,8.33
2023-05-03T17:43:44.722Z,9.27
2023-05-03T17:46:12.929Z,8.19
2023-05-03T17:48:42.688Z,9.80
2023-05-03T17:51:20.778Z,10.37
2023-05-03T17:53:47.490Z,10.32
2023-05-03T17:56:18.237Z,10.03
2023-05-03T17:58:44.948Z,9.31
2023-05-03T18:01:13.600Z,9.82
2023-05-03T18:04:35.122Z,10.48
2023-05-03T18:07:01.848Z,9.21
2023-05-03T18:09:28.815Z,9.05
2023-05-03T18:11:56.542Z,9.17
2023-05-03T18:14:23.333Z,9.77
2023-05-03T18:16:50.769Z,9.58
2023-05-03T18:19:19.397Z,9.61
2023-05-03T18:21:46.172Z,9.52
2023-05-03T18:24:12.912Z,8.70
2023-05-03T18:26:39.674Z,9.93
2023-05-03T18:29:06.429Z,9.87
2023-05-03T18:31:33.907Z,10.30
2023-05-03T18:34:00.750Z,9.74
2023-05-03T18:36:27.459Z,9.32
2023-05-03T18:38:54.456Z,9.78
2023-05-03T18:41:21.166Z,10.08
2023-05-03T18:43:47.980Z,9.79
2023-05-03T18:46:20.809Z,9.79
2023-05-03T18:48:47.898Z,9.74
2023-05-03T18:51:14.667Z,8.70
2023-05-03T18:53:41.370Z,9.27
2023-05-03T18:56:07.976Z,9.73
2023-05-03T18:58:34.619Z,9.46
2023-05-03T19:01:01.481Z,8.49
2023-05-03T19:03:31.407Z,9.85
2023-05-03T19:06:08.573Z,8.64
2023-05-03T19:08:35.826Z,9.03
2023-05-03T19:11:12.865Z,9.38
2023-05-03T19:13:40.320Z,8.48
2023-05-03T19:16:07.285Z,8.91
2023-05-03T19:18:37.374Z,9.93
2023-05-03T19:21:04.992Z,8.98
2023-05-03T19:23:31.626Z,8.50
2023-05-03T19:25:58.306Z,8.76
2023-05-03T19:28:25.038Z,9.86
2023-05-03T19:30:52.094Z,9.23
2023-05-03T19:33:19.595Z,9.01
2023-05-03T19:35:46.371Z,9.77
2023-05-03T19:38:13.943Z,9.14
2023-05-03T19:40:41.383Z,7.68
2023-05-03T19:43:08.162Z,7.40
2023-05-03T19:45:34.903Z,8.74
2023-05-03T19:48:01.650Z,9.00
2023-05-03T19:50:28.366Z,8.04
2023-05-03T19:52:55.061Z,8.09
2023-05-03T19:55:21.748Z,8.14
2023-05-03T19:57:49.067Z,9.51
2023-05-03T20:00:16.381Z,8.36
2023-05-03T20:02:43.272Z,8.88
2023-05-03T20:05:11.296Z,8.29
2023-05-03T20:07:38.107Z,8.66
2023-05-03T20:10:05.666Z,9.13
2023-05-03T20:12:33.921Z,7.71
2023-05-03T20:15:00.820Z,8.05
2023-05-03T20:17:27.645Z,8.04
2023-05-03T20:19:54.703Z,8.23
2023-05-03T20:22:21.712Z,6.52
2023-05-03T20:24:49.249Z,7.17
2023-05-03T20:27:17.473Z,7.62
2023-05-03T20:29:44.203Z,5.58
2023-05-03T20:32:11.053Z,7.77
2023-05-03T20:34:38.137Z,8.72
2023-05-03T20:37:04.858Z,7.18
2023-05-03T20:39:31.578Z,8.23
2023-05-03T20:41:58.489Z,8.13
2023-05-03T20:44:25.177Z,6.51
2023-05-03T20:46:51.873Z,7.55
2023-05-03T20:49:18.678Z,7.08
2023-05-03T20:51:45.340Z,7.79
2023-05-03T20:54:11.981Z,7.40
2023-05-03T20:56:38.636Z,6.94
2023-05-03T20:59:05.380Z,7.14
2023-05-03T21:01:32.079Z,6.14
2023-05-03T21:03:58.838Z,6.40
2023-05-03T21:06:25.586Z,7.37
2023-05-03T21:08:52.944Z,7.93
2023-05-03T21:11:25.894Z,7.39
2023-05-03T21:13:52.550Z,5.64
2023-05-03T21:16:19.311Z,7.83
2023-05-03T21:18:46.070Z,6.54
2023-05-03T21:21:12.786Z,6.65
2023-05-03T21:23:39.492Z,6.14
2023-05-03T21:26:06.476Z,6.51
2023-05-03T21:28:33.663Z,6.19
2023-05-03T21:31:00.344Z,6.38
2023-05-03T21:33:27.400Z,4.87
2023-05-03T21:35:54.094Z,7.08
2023-05-03T21:38:21.644Z,6.64
2023-05-03T21:40:48.365Z,6.86
2023-05-03T21:43:15.406Z,6.33
2023-05-03T21:45:47.124Z,7.62
2023-05-03T21:48:13.831Z,6.91
2023-05-03T21:50:40.556Z,7.54
2023-05-03T21:53:07.308Z,6.53
2023-05-03T21:55:33.995Z,5.14
2023-05-03T21:58:00.608Z,7.17
2023-05-03T22:00:27.404Z,6.42
2023-05-03T22:02:54.264Z,7.11
2023-05-03T22:05:20.953Z,6.67
2023-05-03T22:07:49.302Z,5.61
2023-05-03T22:10:16.468Z,6.89
2023-05-03T22:12:43.466Z,7.52
2023-05-03T22:15:10.576Z,6.02
2023-05-03T22:17:37.370Z,6.74
2023-05-03T22:20:04.685Z,7.50
2023-05-03T22:22:31.624Z,6.35
2023-05-03T22:25:01.653Z,6.68
2023-05-03T22:27:28.565Z,6.72
2023-05-03T22:29:55.338Z,5.96
2023-05-03T22:32:22.079Z,6.82
2023-05-03T22:34:48.762Z,5.79
2023-05-03T22:37:15.421Z,7.13
2023-05-03T22:39:42.322Z,5.87
2023-05-03T22:42:08.990Z,7.67
2023-05-03T22:44:37.250Z,5.61
2023-05-03T22:47:03.962Z,5.90
2023-05-03T22:49:30.670Z,6.54
2023-05-03T22:51:57.282Z,6.50
2023-05-03T22:54:23.969Z,5.56
2023-05-03T22:56:51.147Z,6.81
2023-05-03T22:59:17.863Z,5.99
2023-05-03T23:01:46.186Z,5.85
2023-05-03T23:04:13.137Z,5.19
2023-05-03T23:06:39.756Z,5.90
2023-05-03T23:09:06.594Z,5.87
2023-05-03T23:11:33.625Z,5.45
2023-05-03T23:14:00.569Z,5.94
2023-05-03T23:16:27.420Z,6.94
2023-05-03T23:18:55.679Z,6.14
2023-05-03T23:21:22.516Z,5.69
2023-05-03T23:23:49.389Z,6.13
2023-05-03T23:26:16.061Z,4.79
2023-05-03T23:28:43.249Z,6.09
2023-05-03T23:31:10.281Z,4.37
2023-05-03T23:33:37.363Z,4.00
2023-05-03T23:36:04.254Z,6.25
2023-05-03T23:38:31.114Z,4.24
2023-05-03T23:40:57.814Z,5.59
2023-05-03T23:43:24.451Z,4.15
2023-05-03T23:45:51.202Z,5.26
2023-05-03T23:48:17.881Z,5.08
2023-05-03T23:50:44.527Z,4.67
2023-05-03T23:53:11.219Z,4.57
2023-05-03T23:55:37.861Z,4.46
2023-05-03T23:58:04.839Z,5.10
